createdAt,value
2023-02-03T00:08:05.492Z,1030
2023-02-03T00:18:05.464Z,1030
2023-02-03T00:28:05.634Z,1030
2023-02-03T00:38:05.479Z,1030
2023-02-03T00:48:05.498Z,1030
2023-02-03T00:58:05.460Z,1030
2023-02-03T01:08:05.517Z,1030
2023-02-03T01:18:05.474Z,1030
2023-02-03T01:28:05.617Z,1030
2023-02-03T01:38:05.510Z,1030
2023-02-03T01:48:05.576Z,1029
2023-02-03T01:58:05.529Z,1029
2023-02-03T02:08:05.567Z,1029
2023-02-03T02:18:05.548Z,1029
2023-02-03T02:28:05.609Z,1029
2023-02-03T02:38:05.527Z,1029
2023-02-03T02:48:05.729Z,1029
2023-02-03T02:58:05.572Z,1030
2023-02-03T03:08:05.587Z,1029
2023-02-03T03:18:05.587Z,1030
2023-02-03T03:28:05.726Z,1030
2023-02-03T03:38:05.563Z,1030
2023-02-03T03:48:05.618Z,1030
2023-02-03T03:58:05.601Z,1030
2023-02-03T04:08:05.676Z,1030
2023-02-03T04:18:05.608Z,1030
2023-02-03T04:28:05.723Z,1030
2023-02-03T04:38:05.610Z,1030
2023-02-03T04:48:05.674Z,1030
2023-02-03T04:58:05.661Z,1030
2023-02-03T05:08:05.667Z,1030
2023-02-03T05:18:05.715Z,1030
2023-02-03T05:28:05.763Z,1030
2023-02-03T05:38:05.757Z,1029
2023-02-03T05:48:05.679Z,1030
2023-02-03T05:58:05.687Z,1030
2023-02-03T06:08:05.679Z,1030
2023-02-03T06:18:05.691Z,1030
2023-02-03T06:28:05.762Z,1030
2023-02-03T06:38:05.762Z,1030
2023-02-03T06:48:05.710Z,1030
2023-02-03T06:58:05.725Z,1030
2023-02-03T07:08:05.712Z,1030
2023-02-03T07:18:05.697Z,1030
2023-02-03T07:28:05.777Z,1030
2023-02-03T07:38:05.700Z,1030
2023-02-03T07:48:05.749Z,1030
2023-02-03T07:58:05.735Z,1030
2023-02-03T08:08:05.752Z,1030
2023-02-03T08:18:05.749Z,1030
2023-02-03T08:28:05.797Z,1029
2023-02-03T08:38:05.753Z,1029
2023-02-03T08:48:05.773Z,1029
2023-02-03T08:58:05.754Z,1029
2023-02-03T09:08:05.785Z,1029
2023-02-03T09:18:05.761Z,1029
2023-02-03T09:28:05.786Z,1029
2023-02-03T09:38:05.730Z,1029
2023-02-03T09:48:05.773Z,1028
2023-02-03T09:58:05.759Z,1028
2023-02-03T10:08:05.768Z,1028
2023-02-03T10:18:05.767Z,1028
2023-02-03T10:28:05.812Z,1028
2023-02-03T10:38:05.739Z,1028
2023-02-03T10:48:05.755Z,1027
2023-02-03T10:58:05.736Z,1027
2023-02-03T11:08:05.770Z,1027
2023-02-03T11:18:05.715Z,1027
2023-02-03T11:28:05.865Z,1027
2023-02-03T11:38:05.746Z,1026
2023-02-03T11:48:05.751Z,1026
2023-02-03T11:58:05.693Z,1026
2023-02-03T12:08:05.748Z,1026
2023-02-03T12:18:05.697Z,1026
2023-02-03T12:28:05.796Z,1026
2023-02-03T12:38:05.726Z,1026
2023-02-03T12:48:05.746Z,1024
2023-02-03T12:58:05.714Z,1024
2023-02-03T13:08:05.736Z,1024
2023-02-03T13:18:05.712Z,1024
2023-02-03T13:28:05.763Z,1024
2023-02-03T13:38:05.735Z,1023
2023-02-03T13:48:05.721Z,1023
2023-02-03T13:58:05.689Z,1023
2023-02-03T14:08:05.729Z,1023
2023-02-03T14:18:05.689Z,1023
2023-02-03T14:28:05.885Z,1023
2023-02-03T14:38:05.701Z,1023
2023-02-03T14:48:05.723Z,1023
2023-02-03T14:58:05.724Z,1022
2023-02-03T15:08:05.764Z,1022
2023-02-03T15:18:05.705Z,1022
2023-02-03T15:28:05.790Z,1022
2023-02-03T15:38:05.677Z,1022
2023-02-03T15:48:05.755Z,1022
2023-02-03T15:58:05.713Z,1022
2023-02-03T16:08:05.697Z,1022
2023-02-03T16:18:05.702Z,1021
2023-02-03T16:28:05.727Z,1021
2023-02-03T16:38:05.713Z,1021
2023-02-03T16:48:05.748Z,1021
2023-02-03T16:58:05.728Z,1020
2023-02-03T17:08:05.780Z,1020
2023-02-03T17:18:05.713Z,1021
2023-02-03T17:28:05.756Z,1021
2023-02-03T17:38:05.708Z,1021
2023-02-03T17:58:05.715Z,1022
2023-02-03T18:08:08.978Z,1022
2023-02-03T18:18:05.716Z,1023
2023-02-03T18:28:05.724Z,1023
2023-02-03T18:38:05.727Z,1023
2023-02-03T18:48:05.692Z,1023
2023-02-03T18:58:05.722Z,1023
2023-02-03T19:08:05.794Z,1023
2023-02-03T19:18:05.710Z,1023
2023-02-03T19:28:06.726Z,1023
2023-02-03T19:38:05.777Z,1023
2023-02-03T19:48:05.718Z,1023
2023-02-03T19:58:05.736Z,1023
2023-02-03T20:08:05.737Z,1022
2023-02-03T20:18:05.745Z,1023
2023-02-03T20:28:05.724Z,1022
2023-02-03T20:38:05.746Z,1023
2023-02-03T20:48:05.726Z,1023
2023-02-03T20:58:05.762Z,1023
2023-02-03T21:08:05.735Z,1023
2023-02-03T21:18:05.715Z,1023
2023-02-03T21:28:05.734Z,1023
2023-02-03T21:38:05.743Z,1023
2023-02-03T21:48:05.760Z,1023
2023-02-03T21:58:05.772Z,1023
2023-02-03T22:08:05.738Z,1023
2023-02-03T22:18:05.780Z,1023
2023-02-03T22:28:05.818Z,1023
2023-02-03T22:38:05.779Z,1023
2023-02-03T22:48:05.734Z,1022
2023-02-03T22:58:05.762Z,1022
2023-02-03T23:08:05.724Z,1022
2023-02-03T23:18:05.736Z,1022
2023-02-03T23:28:05.753Z,1022
2023-02-03T23:38:05.770Z,1022
2023-02-03T23:48:05.740Z,1023
2023-02-03T23:58:05.750Z,1022
